Wetterdaten für den Flughafen Lübeck Blankensee


ADDS - METARS form results Aviation Digital Data Service (ADDS) Output produced by METARs form (1423 UTC 22 January 2022)
found at http://www.aviationweather.gov/metar/data/
 
EDHL 221350Z 27004KT 230V300 5000 -RA BR BKN004 06/06 Q1028
TAF EDHL 221100Z 2212/2221 27004KT 6000 BKN006 TEMPO 2212/2215 2000 DZ BR OVC003 TEMPO 2215/2219 SCT006 BKN015 TEMPO 2219/2221 4500 BR

Nord: Hamburg, Lübeck
Ost: Schwerin, Rostock
Süd: Hannover
West: Bremen, Nordhloz

 

Copyright © 2016 Flugschule Hohensee